sensor_id;sensor_type;location;lat;lon;timestamp;temperature;humidity
8593;DHT22;4334;49.982;8.398;2022-10-16T00:02:19;16.70;99.90
8593;DHT22;4334;49.982;8.398;2022-10-16T00:04:46;15.40;99.90
8593;DHT22;4334;49.982;8.398;2022-10-16T00:07:13;15.40;99.90
8593;DHT22;4334;49.982;8.398;2022-10-16T00:09:41;15.30;99.90
8593;DHT22;4334;49.982;8.398;2022-10-16T00:12:08;15.30;99.90
8593;DHT22;4334;49.982;8.398;2022-10-16T00:14:34;15.30;99.90
8593;DHT22;4334;49.982;8.398;2022-10-16T00:17:01;15.40;99.90
8593;DHT22;4334;49.982;8.398;2022-10-16T00:19:29;15.30;99.90
8593;DHT22;4334;49.982;8.398;2022-10-16T00:21:56;15.30;99.90
8593;DHT22;4334;49.982;8.398;2022-10-16T00:24:22;15.30;99.90
8593;DHT22;4334;49.982;8.398;2022-10-16T00:26:50;15.30;99.90
8593;DHT22;4334;49.982;8.398;2022-10-16T00:29:17;15.30;99.90
8593;DHT22;4334;49.982;8.398;2022-10-16T00:31:44;17.10;99.90
8593;DHT22;4334;49.982;8.398;2022-10-16T00:34:11;15.30;99.90
8593;DHT22;4334;49.982;8.398;2022-10-16T00:36:38;15.20;99.90
8593;DHT22;4334;49.982;8.398;2022-10-16T00:39:05;15.20;99.90
8593;DHT22;4334;49.982;8.398;2022-10-16T00:41:32;15.30;99.90
8593;DHT22;4334;49.982;8.398;2022-10-16T00:44:02;15.40;99.90
8593;DHT22;4334;49.982;8.398;2022-10-16T00:46:33;15.40;99.90
8593;DHT22;4334;49.982;8.398;2022-10-16T00:49:04;15.40;99.90
8593;DHT22;4334;49.982;8.398;2022-10-16T00:51:35;15.40;99.90
8593;DHT22;4334;49.982;8.398;2022-10-16T00:54:05;15.50;99.90
8593;DHT22;4334;49.982;8.398;2022-10-16T00:56:33;15.50;99.90
8593;DHT22;4334;49.982;8.398;2022-10-16T00:59:03;15.50;99.90
8593;DHT22;4334;49.982;8.398;2022-10-16T01:01:33;15.50;99.90
8593;DHT22;4334;49.982;8.398;2022-10-16T01:03:59;15.50;99.90
8593;DHT22;4334;49.982;8.398;2022-10-16T01:06:33;15.50;99.90
8593;DHT22;4334;49.982;8.398;2022-10-16T01:09:13;15.50;99.90
8593;DHT22;4334;49.982;8.398;2022-10-16T01:11:49;15.60;99.90
8593;DHT22;4334;49.982;8.398;2022-10-16T01:14:26;15.60;99.90
8593;DHT22;4334;49.982;8.398;2022-10-16T01:16:58;15.60;99.90
8593;DHT22;4334;49.982;8.398;2022-10-16T01:19:44;15.60;99.90
8593;DHT22;4334;49.982;8.398;2022-10-16T01:22:17;15.60;99.90
8593;DHT22;4334;49.982;8.398;2022-10-16T01:24:47;15.60;99.90
8593;DHT22;4334;49.982;8.398;2022-10-16T01:27:18;15.50;99.90
8593;DHT22;4334;49.982;8.398;2022-10-16T01:29:52;15.50;99.90
8593;DHT22;4334;49.982;8.398;2022-10-16T01:32:23;15.40;99.90
8593;DHT22;4334;49.982;8.398;2022-10-16T01:34:55;15.40;99.90
8593;DHT22;4334;49.982;8.398;2022-10-16T01:37:36;15.40;99.90
8593;DHT22;4334;49.982;8.398;2022-10-16T01:40:09;15.40;99.90
8593;DHT22;4334;49.982;8.398;2022-10-16T01:42:40;15.30;99.90
8593;DHT22;4334;49.982;8.398;2022-10-16T01:45:10;16.10;99.90
8593;DHT22;4334;49.982;8.398;2022-10-16T01:47:39;15.40;99.90
8593;DHT22;4334;49.982;8.398;2022-10-16T01:50:08;15.30;99.90
8593;DHT22;4334;49.982;8.398;2022-10-16T01:52:37;15.30;99.90
8593;DHT22;4334;49.982;8.398;2022-10-16T01:55:07;15.30;99.90
8593;DHT22;4334;49.982;8.398;2022-10-16T01:57:38;15.30;99.90
8593;DHT22;4334;49.982;8.398;2022-10-16T02:00:10;15.30;99.90
8593;DHT22;4334;49.982;8.398;2022-10-16T02:02:39;15.30;99.90
8593;DHT22;4334;49.982;8.398;2022-10-16T02:05:12;15.30;99.90
8593;DHT22;4334;49.982;8.398;2022-10-16T02:07:41;15.30;99.90
8593;DHT22;4334;49.982;8.398;2022-10-16T02:10:08;15.30;99.90
8593;DHT22;4334;49.982;8.398;2022-10-16T02:12:39;15.30;99.90
8593;DHT22;4334;49.982;8.398;2022-10-16T02:15:08;15.30;99.90
8593;DHT22;4334;49.982;8.398;2022-10-16T02:17:35;15.30;99.90
8593;DHT22;4334;49.982;8.398;2022-10-16T02:20:03;15.30;99.90
8593;DHT22;4334;49.982;8.398;2022-10-16T02:22:33;15.30;99.90
8593;DHT22;4334;49.982;8.398;2022-10-16T02:25:04;15.30;99.90
8593;DHT22;4334;49.982;8.398;2022-10-16T02:27:38;15.30;99.90
8593;DHT22;4334;49.982;8.398;2022-10-16T02:30:07;15.30;99.90
8593;DHT22;4334;49.982;8.398;2022-10-16T02:32:39;15.30;99.90
8593;DHT22;4334;49.982;8.398;2022-10-16T02:35:08;15.30;99.90
8593;DHT22;4334;49.982;8.398;2022-10-16T02:37:36;18.60;99.90
8593;DHT22;4334;49.982;8.398;2022-10-16T02:40:06;15.30;99.90
8593;DHT22;4334;49.982;8.398;2022-10-16T02:42:35;15.20;99.90
8593;DHT22;4334;49.982;8.398;2022-10-16T02:45:04;15.30;99.90
8593;DHT22;4334;49.982;8.398;2022-10-16T02:47:31;15.30;99.90
8593;DHT22;4334;49.982;8.398;2022-10-16T02:49:58;15.30;99.90
8593;DHT22;4334;49.982;8.398;2022-10-16T02:52:25;17.30;99.90
8593;DHT22;4334;49.982;8.398;2022-10-16T02:54:51;15.20;99.90
8593;DHT22;4334;49.982;8.398;2022-10-16T02:57:19;15.20;99.90
8593;DHT22;4334;49.982;8.398;2022-10-16T02:59:45;15.20;99.90
8593;DHT22;4334;49.982;8.398;2022-10-16T03:02:14;18.70;99.90
8593;DHT22;4334;49.982;8.398;2022-10-16T03:04:40;15.20;99.90
8593;DHT22;4334;49.982;8.398;2022-10-16T03:07:07;15.10;99.90
8593;DHT22;4334;49.982;8.398;2022-10-16T03:09:34;15.10;99.90
8593;DHT22;4334;49.982;8.398;2022-10-16T03:12:01;15.10;99.90
8593;DHT22;4334;49.982;8.398;2022-10-16T03:14:28;16.70;99.90
8593;DHT22;4334;49.982;8.398;2022-10-16T03:16:54;15.10;99.90
8593;DHT22;4334;49.982;8.398;2022-10-16T03:19:22;15.10;99.90
8593;DHT22;4334;49.982;8.398;2022-10-16T03:21:49;15.10;99.90
8593;DHT22;4334;49.982;8.398;2022-10-16T03:24:16;15.10;99.90
8593;DHT22;4334;49.982;8.398;2022-10-16T03:26:43;15.10;99.90
8593;DHT22;4334;49.982;8.398;2022-10-16T03:29:09;15.10;99.90
8593;DHT22;4334;49.982;8.398;2022-10-16T03:31:36;15.10;99.90
8593;DHT22;4334;49.982;8.398;2022-10-16T03:34:03;15.10;99.90
8593;DHT22;4334;49.982;8.398;2022-10-16T03:36:32;16.80;99.90
8593;DHT22;4334;49.982;8.398;2022-10-16T03:38:58;15.10;99.90
8593;DHT22;4334;49.982;8.398;2022-10-16T03:41:25;15.10;99.90
8593;DHT22;4334;49.982;8.398;2022-10-16T03:43:52;15.10;99.90
8593;DHT22;4334;49.982;8.398;2022-10-16T03:46:18;15.10;99.90
8593;DHT22;4334;49.982;8.398;2022-10-16T03:48:45;15.10;99.90
8593;DHT22;4334;49.982;8.398;2022-10-16T03:51:12;15.10;99.90
8593;DHT22;4334;49.982;8.398;2022-10-16T03:53:40;15.00;99.90
8593;DHT22;4334;49.982;8.398;2022-10-16T03:56:06;15.00;99.90
8593;DHT22;4334;49.982;8.398;2022-10-16T03:58:33;15.00;99.90
8593;DHT22;4334;49.982;8.398;2022-10-16T04:01:00;15.00;99.90
8593;DHT22;4334;49.982;8.398;2022-10-16T04:03:27;15.00;99.90
8593;DHT22;4334;49.982;8.398;2022-10-16T04:05:54;15.00;99.90
8593;DHT22;4334;49.982;8.398;2022-10-16T04:08:22;15.00;99.90
8593;DHT22;4334;49.982;8.398;2022-10-16T04:10:50;17.70;99.90
8593;DHT22;4334;49.982;8.398;2022-10-16T04:13:16;15.10;99.90
8593;DHT22;4334;49.982;8.398;2022-10-16T04:15:45;15.20;99.90
8593;DHT22;4334;49.982;8.398;2022-10-16T04:18:12;15.10;99.90
8593;DHT22;4334;49.982;8.398;2022-10-16T04:20:38;15.00;99.90
8593;DHT22;4334;49.982;8.398;2022-10-16T04:23:05;15.10;99.90
8593;DHT22;4334;49.982;8.398;2022-10-16T04:25:32;15.00;99.90
8593;DHT22;4334;49.982;8.398;2022-10-16T04:28:00;15.00;99.90
8593;DHT22;4334;49.982;8.398;2022-10-16T04:30:27;15.00;99.90
8593;DHT22;4334;49.982;8.398;2022-10-16T04:32:54;15.10;99.90
8593;DHT22;4334;49.982;8.398;2022-10-16T04:35:21;15.00;99.90
8593;DHT22;4334;49.982;8.398;2022-10-16T04:37:48;15.00;99.90
8593;DHT22;4334;49.982;8.398;2022-10-16T04:40:16;15.00;99.90
8593;DHT22;4334;49.982;8.398;2022-10-16T04:42:42;15.90;99.90
8593;DHT22;4334;49.982;8.398;2022-10-16T04:45:11;15.00;99.90
8593;DHT22;4334;49.982;8.398;2022-10-16T04:47:37;15.00;99.90
8593;DHT22;4334;49.982;8.398;2022-10-16T04:50:05;15.10;99.90
8593;DHT22;4334;49.982;8.398;2022-10-16T04:52:32;15.00;99.90
8593;DHT22;4334;49.982;8.398;2022-10-16T04:54:59;15.00;99.90
8593;DHT22;4334;49.982;8.398;2022-10-16T04:57:28;15.00;99.90
8593;DHT22;4334;49.982;8.398;2022-10-16T04:59:55;15.10;99.90
8593;DHT22;4334;49.982;8.398;2022-10-16T05:02:23;15.10;99.90
8593;DHT22;4334;49.982;8.398;2022-10-16T05:04:50;15.00;99.90
8593;DHT22;4334;49.982;8.398;2022-10-16T05:07:16;15.00;99.90
8593;DHT22;4334;49.982;8.398;2022-10-16T05:09:43;15.00;99.90
8593;DHT22;4334;49.982;8.398;2022-10-16T05:12:10;15.10;99.90
8593;DHT22;4334;49.982;8.398;2022-10-16T05:14:37;15.10;99.90
8593;DHT22;4334;49.982;8.398;2022-10-16T05:17:03;15.10;99.90
8593;DHT22;4334;49.982;8.398;2022-10-16T05:19:32;15.10;99.90
8593;DHT22;4334;49.982;8.398;2022-10-16T05:21:58;15.10;99.90
8593;DHT22;4334;49.982;8.398;2022-10-16T05:24:25;15.00;99.90
8593;DHT22;4334;49.982;8.398;2022-10-16T05:26:52;15.00;99.90
8593;DHT22;4334;49.982;8.398;2022-10-16T05:29:19;15.00;99.90
8593;DHT22;4334;49.982;8.398;2022-10-16T05:31:46;15.00;99.90
8593;DHT22;4334;49.982;8.398;2022-10-16T05:34:13;14.90;99.90
8593;DHT22;4334;49.982;8.398;2022-10-16T05:36:41;14.90;99.90
8593;DHT22;4334;49.982;8.398;2022-10-16T05:39:07;14.90;99.90
8593;DHT22;4334;49.982;8.398;2022-10-16T05:41:34;14.90;99.90
8593;DHT22;4334;49.982;8.398;2022-10-16T05:44:04;15.20;99.90
8593;DHT22;4334;49.982;8.398;2022-10-16T05:46:31;14.90;99.90
8593;DHT22;4334;49.982;8.398;2022-10-16T05:48:58;14.90;99.90
8593;DHT22;4334;49.982;8.398;2022-10-16T05:51:25;14.90;99.90
8593;DHT22;4334;49.982;8.398;2022-10-16T05:53:53;14.90;99.90
8593;DHT22;4334;49.982;8.398;2022-10-16T05:56:19;15.00;99.90
8593;DHT22;4334;49.982;8.398;2022-10-16T05:58:46;15.00;99.90
8593;DHT22;4334;49.982;8.398;2022-10-16T06:01:15;15.10;99.90
8593;DHT22;4334;49.982;8.398;2022-10-16T06:03:42;15.20;99.90
8593;DHT22;4334;49.982;8.398;2022-10-16T06:06:09;15.10;99.90
8593;DHT22;4334;49.982;8.398;2022-10-16T06:08:37;15.10;99.90
8593;DHT22;4334;49.982;8.398;2022-10-16T06:11:07;15.10;99.90
8593;DHT22;4334;49.982;8.398;2022-10-16T06:13:34;15.20;99.90
8593;DHT22;4334;49.982;8.398;2022-10-16T06:16:01;15.20;99.90
8593;DHT22;4334;49.982;8.398;2022-10-16T06:18:29;15.20;99.90
8593;DHT22;4334;49.982;8.398;2022-10-16T06:20:57;15.20;99.90
8593;DHT22;4334;49.982;8.398;2022-10-16T06:23:24;15.20;99.90
8593;DHT22;4334;49.982;8.398;2022-10-16T06:25:51;15.30;99.90
8593;DHT22;4334;49.982;8.398;2022-10-16T06:28:20;15.20;99.90
8593;DHT22;4334;49.982;8.398;2022-10-16T06:30:48;15.30;99.90
8593;DHT22;4334;49.982;8.398;2022-10-16T06:33:15;15.30;99.90
8593;DHT22;4334;49.982;8.398;2022-10-16T06:35:41;15.30;99.90
8593;DHT22;4334;49.982;8.398;2022-10-16T06:38:08;15.30;99.90
8593;DHT22;4334;49.982;8.398;2022-10-16T06:40:35;16.30;99.90
8593;DHT22;4334;49.982;8.398;2022-10-16T06:43:01;15.30;99.90
8593;DHT22;4334;49.982;8.398;2022-10-16T06:45:29;15.30;99.90
8593;DHT22;4334;49.982;8.398;2022-10-16T06:47:56;15.30;99.90
8593;DHT22;4334;49.982;8.398;2022-10-16T06:50:23;15.30;99.90
8593;DHT22;4334;49.982;8.398;2022-10-16T06:52:50;15.40;99.90
8593;DHT22;4334;49.982;8.398;2022-10-16T06:55:17;15.50;99.90
8593;DHT22;4334;49.982;8.398;2022-10-16T06:57:46;15.50;99.90
8593;DHT22;4334;49.982;8.398;2022-10-16T07:00:22;15.50;99.90
8593;DHT22;4334;49.982;8.398;2022-10-16T07:02:51;15.40;99.90
8593;DHT22;4334;49.982;8.398;2022-10-16T07:05:18;15.50;99.90
8593;DHT22;4334;49.982;8.398;2022-10-16T07:07:45;15.60;99.90
8593;DHT22;4334;49.982;8.398;2022-10-16T07:10:11;15.60;99.90
8593;DHT22;4334;49.982;8.398;2022-10-16T07:12:38;15.70;99.90
8593;DHT22;4334;49.982;8.398;2022-10-16T07:15:06;15.70;99.90
8593;DHT22;4334;49.982;8.398;2022-10-16T07:17:33;15.60;99.90
8593;DHT22;4334;49.982;8.398;2022-10-16T07:20:01;15.60;99.90
8593;DHT22;4334;49.982;8.398;2022-10-16T07:22:28;15.60;99.90
8593;DHT22;4334;49.982;8.398;2022-10-16T07:24:55;15.60;99.90
8593;DHT22;4334;49.982;8.398;2022-10-16T07:27:21;15.60;99.90
8593;DHT22;4334;49.982;8.398;2022-10-16T07:29:49;15.60;99.90
8593;DHT22;4334;49.982;8.398;2022-10-16T07:32:16;15.60;99.90
8593;DHT22;4334;49.982;8.398;2022-10-16T07:34:42;15.60;99.90
8593;DHT22;4334;49.982;8.398;2022-10-16T07:37:10;15.70;99.90
8593;DHT22;4334;49.982;8.398;2022-10-16T07:39:37;15.80;99.90
8593;DHT22;4334;49.982;8.398;2022-10-16T07:42:04;15.80;99.90
8593;DHT22;4334;49.982;8.398;2022-10-16T07:44:31;15.90;99.90
8593;DHT22;4334;49.982;8.398;2022-10-16T07:46:58;15.90;99.90
8593;DHT22;4334;49.982;8.398;2022-10-16T07:49:25;15.90;99.90
8593;DHT22;4334;49.982;8.398;2022-10-16T07:51:52;16.20;99.90
8593;DHT22;4334;49.982;8.398;2022-10-16T07:54:20;16.00;99.90
8593;DHT22;4334;49.982;8.398;2022-10-16T07:56:47;17.60;99.90
8593;DHT22;4334;49.982;8.398;2022-10-16T07:59:13;16.10;99.90
8593;DHT22;4334;49.982;8.398;2022-10-16T08:01:40;16.10;99.90
8593;DHT22;4334;49.982;8.398;2022-10-16T08:04:09;19.40;99.90
8593;DHT22;4334;49.982;8.398;2022-10-16T08:06:37;16.20;99.90
8593;DHT22;4334;49.982;8.398;2022-10-16T08:09:05;16.20;99.90
8593;DHT22;4334;49.982;8.398;2022-10-16T08:11:34;16.20;99.90
8593;DHT22;4334;49.982;8.398;2022-10-16T08:14:01;16.20;99.90
8593;DHT22;4334;49.982;8.398;2022-10-16T08:16:28;16.20;99.90
8593;DHT22;4334;49.982;8.398;2022-10-16T08:18:54;16.20;99.90
8593;DHT22;4334;49.982;8.398;2022-10-16T08:21:22;16.20;99.90
8593;DHT22;4334;49.982;8.398;2022-10-16T08:23:50;16.10;99.90
8593;DHT22;4334;49.982;8.398;2022-10-16T08:26:17;16.00;99.90
8593;DHT22;4334;49.982;8.398;2022-10-16T08:28:45;17.50;99.90
8593;DHT22;4334;49.982;8.398;2022-10-16T08:31:14;16.00;99.90
8593;DHT22;4334;49.982;8.398;2022-10-16T08:33:42;16.10;99.90
8593;DHT22;4334;49.982;8.398;2022-10-16T08:36:11;16.20;99.90
8593;DHT22;4334;49.982;8.398;2022-10-16T08:38:38;16.30;99.90
8593;DHT22;4334;49.982;8.398;2022-10-16T08:41:21;16.40;99.90
8593;DHT22;4334;49.982;8.398;2022-10-16T08:44:03;16.50;99.90
8593;DHT22;4334;49.982;8.398;2022-10-16T08:46:42;16.50;99.90
8593;DHT22;4334;49.982;8.398;2022-10-16T08:49:13;16.40;99.90
8593;DHT22;4334;49.982;8.398;2022-10-16T08:51:40;16.30;99.90
8593;DHT22;4334;49.982;8.398;2022-10-16T08:54:21;16.30;99.90
8593;DHT22;4334;49.982;8.398;2022-10-16T08:56:49;16.40;99.90
8593;DHT22;4334;49.982;8.398;2022-10-16T08:59:18;16.50;99.90
8593;DHT22;4334;49.982;8.398;2022-10-16T09:01:47;16.80;99.90
8593;DHT22;4334;49.982;8.398;2022-10-16T09:04:48;17.00;99.90
8593;DHT22;4334;49.982;8.398;2022-10-16T09:07:23;17.10;99.90
8593;DHT22;4334;49.982;8.398;2022-10-16T09:10:14;20.50;99.90
8593;DHT22;4334;49.982;8.398;2022-10-16T09:12:55;16.90;99.90
8593;DHT22;4334;49.982;8.398;2022-10-16T09:15:32;16.80;99.90
8593;DHT22;4334;49.982;8.398;2022-10-16T09:18:06;16.80;99.90
8593;DHT22;4334;49.982;8.398;2022-10-16T09:20:42;16.70;99.90
8593;DHT22;4334;49.982;8.398;2022-10-16T09:23:17;16.70;99.90
8593;DHT22;4334;49.982;8.398;2022-10-16T09:25:46;16.90;99.90
8593;DHT22;4334;49.982;8.398;2022-10-16T09:28:14;16.60;99.90
8593;DHT22;4334;49.982;8.398;2022-10-16T09:30:43;16.70;99.90
8593;DHT22;4334;49.982;8.398;2022-10-16T09:33:12;16.70;99.90
8593;DHT22;4334;49.982;8.398;2022-10-16T09:35:41;16.60;99.90
8593;DHT22;4334;49.982;8.398;2022-10-16T09:38:09;16.50;
8593;DHT22;4334;49.982;8.398;2022-10-16T09:40:46;16.60;99.90
8593;DHT22;4334;49.982;8.398;2022-10-16T09:43:20;16.80;99.90
8593;DHT22;4334;49.982;8.398;2022-10-16T09:45:58;16.90;99.90
8593;DHT22;4334;49.982;8.398;2022-10-16T09:48:28;17.00;99.90
8593;DHT22;4334;49.982;8.398;2022-10-16T09:51:00;16.80;99.90
8593;DHT22;4334;49.982;8.398;2022-10-16T09:53:39;16.80;99.90
8593;DHT22;4334;49.982;8.398;2022-10-16T09:56:06;16.70;99.90
8593;DHT22;4334;49.982;8.398;2022-10-16T09:58:33;16.50;99.90
8593;DHT22;4334;49.982;8.398;2022-10-16T10:01:01;16.50;99.90
8593;DHT22;4334;49.982;8.398;2022-10-16T10:03:35;20.20;99.90
8593;DHT22;4334;49.982;8.398;2022-10-16T10:06:07;16.60;99.90
8593;DHT22;4334;49.982;8.398;2022-10-16T10:08:51;16.70;99.90
8593;DHT22;4334;49.982;8.398;2022-10-16T10:11:18;17.20;99.90
8593;DHT22;4334;49.982;8.398;2022-10-16T10:14:06;17.40;99.90
8593;DHT22;4334;49.982;8.398;2022-10-16T10:16:37;17.50;99.90
8593;DHT22;4334;49.982;8.398;2022-10-16T10:19:03;17.60;99.90
8593;DHT22;4334;49.982;8.398;2022-10-16T10:21:33;17.60;99.90
8593;DHT22;4334;49.982;8.398;2022-10-16T10:24:00;17.90;99.90
8593;DHT22;4334;49.982;8.398;2022-10-16T10:26:28;18.40;99.90
8593;DHT22;4334;49.982;8.398;2022-10-16T10:29:00;19.00;99.90
8593;DHT22;4334;49.982;8.398;2022-10-16T10:31:34;19.30;99.90
8593;DHT22;4334;49.982;8.398;2022-10-16T10:34:17;19.30;99.90
8593;DHT22;4334;49.982;8.398;2022-10-16T10:36:49;19.40;99.90
8593;DHT22;4334;49.982;8.398;2022-10-16T10:39:23;20.00;99.90
8593;DHT22;4334;49.982;8.398;2022-10-16T10:42:04;21.80;99.90
8593;DHT22;4334;49.982;8.398;2022-10-16T10:44:52;22.90;99.90
8593;DHT22;4334;49.982;8.398;2022-10-16T10:47:28;21.80;99.90
8593;DHT22;4334;49.982;8.398;2022-10-16T10:50:07;21.00;99.90
8593;DHT22;4334;49.982;8.398;2022-10-16T10:52:41;20.90;99.90
8593;DHT22;4334;49.982;8.398;2022-10-16T10:55:18;20.70;99.90
8593;DHT22;4334;49.982;8.398;2022-10-16T10:57:58;20.40;99.90
8593;DHT22;4334;49.982;8.398;2022-10-16T11:00:31;20.30;99.90
8593;DHT22;4334;49.982;8.398;2022-10-16T11:03:06;20.50;99.90
8593;DHT22;4334;49.982;8.398;2022-10-16T11:05:43;20.50;99.90
8593;DHT22;4334;49.982;8.398;2022-10-16T11:08:16;20.60;99.90
8593;DHT22;4334;49.982;8.398;2022-10-16T11:10:49;22.30;99.90
8593;DHT22;4334;49.982;8.398;2022-10-16T11:13:24;22.90;99.90
8593;DHT22;4334;49.982;8.398;2022-10-16T11:15:57;23.10;99.90
8593;DHT22;4334;49.982;8.398;2022-10-16T11:18:27;22.70;99.90
8593;DHT22;4334;49.982;8.398;2022-10-16T11:21:04;22.00;99.90
8593;DHT22;4334;49.982;8.398;2022-10-16T11:23:37;21.20;99.90
8593;DHT22;4334;49.982;8.398;2022-10-16T11:26:12;21.10;99.90
8593;DHT22;4334;49.982;8.398;2022-10-16T11:28:43;21.00;99.90
8593;DHT22;4334;49.982;8.398;2022-10-16T11:31:14;21.00;99.90
8593;DHT22;4334;49.982;8.398;2022-10-16T11:33:45;20.90;99.90
8593;DHT22;4334;49.982;8.398;2022-10-16T11:36:17;20.80;99.90
8593;DHT22;4334;49.982;8.398;2022-10-16T11:38:51;20.90;99.90
8593;DHT22;4334;49.982;8.398;2022-10-16T11:41:26;21.00;99.90
8593;DHT22;4334;49.982;8.398;2022-10-16T11:46:46;21.40;99.90
8593;DHT22;4334;49.982;8.398;2022-10-16T11:49:19;21.10;99.90
8593;DHT22;4334;49.982;8.398;2022-10-16T11:51:59;21.10;99.90
8593;DHT22;4334;49.982;8.398;2022-10-16T11:54:33;21.40;99.90
8593;DHT22;4334;49.982;8.398;2022-10-16T11:57:08;21.20;99.90
8593;DHT22;4334;49.982;8.398;2022-10-16T11:59:43;21.40;99.90
8593;DHT22;4334;49.982;8.398;2022-10-16T12:02:33;23.50;99.90
8593;DHT22;4334;49.982;8.398;2022-10-16T12:05:11;25.50;99.90
8593;DHT22;4334;49.982;8.398;2022-10-16T12:07:49;26.40;99.90
8593;DHT22;4334;49.982;8.398;2022-10-16T12:10:22;26.40;99.90
8593;DHT22;4334;49.982;8.398;2022-10-16T12:12:49;26.30;99.90
8593;DHT22;4334;49.982;8.398;2022-10-16T12:15:22;27.20;99.90
8593;DHT22;4334;49.982;8.398;2022-10-16T12:17:49;27.30;99.90
8593;DHT22;4334;49.982;8.398;2022-10-16T12:20:24;26.50;99.90
8593;DHT22;4334;49.982;8.398;2022-10-16T12:22:55;25.90;99.90
8593;DHT22;4334;49.982;8.398;2022-10-16T12:25:25;25.80;99.90
8593;DHT22;4334;49.982;8.398;2022-10-16T12:27:58;26.50;99.90
8593;DHT22;4334;49.982;8.398;2022-10-16T12:30:26;27.50;99.90
8593;DHT22;4334;49.982;8.398;2022-10-16T12:32:56;27.70;99.90
8593;DHT22;4334;49.982;8.398;2022-10-16T12:35:26;27.40;99.90
8593;DHT22;4334;49.982;8.398;2022-10-16T12:38:05;27.70;99.90
8593;DHT22;4334;49.982;8.398;2022-10-16T12:40:35;27.00;99.90
8593;DHT22;4334;49.982;8.398;2022-10-16T12:43:12;25.50;99.90
8593;DHT22;4334;49.982;8.398;2022-10-16T12:45:39;24.30;99.90
8593;DHT22;4334;49.982;8.398;2022-10-16T12:48:19;24.20;99.90
8593;DHT22;4334;49.982;8.398;2022-10-16T12:50:46;24.90;99.90
8593;DHT22;4334;49.982;8.398;2022-10-16T12:53:22;25.50;99.90
8593;DHT22;4334;49.982;8.398;2022-10-16T12:55:57;24.60;99.90
8593;DHT22;4334;49.982;8.398;2022-10-16T12:58:43;23.60;99.90
8593;DHT22;4334;49.982;8.398;2022-10-16T13:01:29;23.00;99.90
8593;DHT22;4334;49.982;8.398;2022-10-16T13:04:22;22.60;99.90
8593;DHT22;4334;49.982;8.398;2022-10-16T13:06:58;22.30;99.90
8593;DHT22;4334;49.982;8.398;2022-10-16T13:09:40;22.20;99.90
8593;DHT22;4334;49.982;8.398;2022-10-16T13:15:22;21.90;99.90
8593;DHT22;4334;49.982;8.398;2022-10-16T13:17:57;21.80;99.90
8593;DHT22;4334;49.982;8.398;2022-10-16T13:20:33;22.30;99.90
8593;DHT22;4334;49.982;8.398;2022-10-16T13:23:07;22.60;99.90
8593;DHT22;4334;49.982;8.398;2022-10-16T13:25:47;22.70;99.90
8593;DHT22;4334;49.982;8.398;2022-10-16T13:28:22;22.80;99.90
8593;DHT22;4334;49.982;8.398;2022-10-16T13:30:53;22.90;99.90
8593;DHT22;4334;49.982;8.398;2022-10-16T13:33:29;22.90;99.90
8593;DHT22;4334;49.982;8.398;2022-10-16T13:35:57;22.60;99.90
8593;DHT22;4334;49.982;8.398;2022-10-16T13:38:25;22.30;99.90
8593;DHT22;4334;49.982;8.398;2022-10-16T13:40:55;22.10;99.90
8593;DHT22;4334;49.982;8.398;2022-10-16T13:43:26;22.00;99.90
8593;DHT22;4334;49.982;8.398;2022-10-16T13:45:58;21.90;99.90
8593;DHT22;4334;49.982;8.398;2022-10-16T13:48:25;21.90;99.90
8593;DHT22;4334;49.982;8.398;2022-10-16T13:51:00;21.90;99.90
8593;DHT22;4334;49.982;8.398;2022-10-16T13:53:27;21.70;99.90
8593;DHT22;4334;49.982;8.398;2022-10-16T13:55:57;21.50;99.90
8593;DHT22;4334;49.982;8.398;2022-10-16T13:58:25;21.10;99.90
8593;DHT22;4334;49.982;8.398;2022-10-16T14:00:55;20.90;99.90
8593;DHT22;4334;49.982;8.398;2022-10-16T14:03:22;20.70;99.90
8593;DHT22;4334;49.982;8.398;2022-10-16T14:05:52;23.70;99.90
8593;DHT22;4334;49.982;8.398;2022-10-16T14:08:19;20.70;99.90
8593;DHT22;4334;49.982;8.398;2022-10-16T14:10:48;20.80;99.90
8593;DHT22;4334;49.982;8.398;2022-10-16T14:13:19;20.80;99.90
8593;DHT22;4334;49.982;8.398;2022-10-16T14:15:48;20.60;99.90
8593;DHT22;4334;49.982;8.398;2022-10-16T14:18:19;20.70;99.90
8593;DHT22;4334;49.982;8.398;2022-10-16T14:20:46;20.90;99.90
8593;DHT22;4334;49.982;8.398;2022-10-16T14:23:23;24.40;99.90
8593;DHT22;4334;49.982;8.398;2022-10-16T14:25:51;21.00;99.90
8593;DHT22;4334;49.982;8.398;2022-10-16T14:28:21;21.20;99.90
8593;DHT22;4334;49.982;8.398;2022-10-16T14:30:53;21.30;99.90
8593;DHT22;4334;49.982;8.398;2022-10-16T14:33:23;21.50;99.90
8593;DHT22;4334;49.982;8.398;2022-10-16T14:36:02;21.30;99.90
8593;DHT22;4334;49.982;8.398;2022-10-16T14:38:29;21.10;99.90
8593;DHT22;4334;49.982;8.398;2022-10-16T14:40:58;21.20;99.90
8593;DHT22;4334;49.982;8.398;2022-10-16T14:43:32;21.00;99.90
8593;DHT22;4334;49.982;8.398;2022-10-16T14:46:00;20.90;99.90
8593;DHT22;4334;49.982;8.398;2022-10-16T14:48:27;20.90;99.90
8593;DHT22;4334;49.982;8.398;2022-10-16T14:50:54;21.00;99.90
8593;DHT22;4334;49.982;8.398;2022-10-16T14:53:21;21.00;99.90
8593;DHT22;4334;49.982;8.398;2022-10-16T14:55:48;21.00;99.90
8593;DHT22;4334;49.982;8.398;2022-10-16T14:58:17;21.50;99.90
8593;DHT22;4334;49.982;8.398;2022-10-16T15:00:46;23.00;99.90
8593;DHT22;4334;49.982;8.398;2022-10-16T15:03:14;22.00;99.90
8593;DHT22;4334;49.982;8.398;2022-10-16T15:05:40;21.80;99.90
8593;DHT22;4334;49.982;8.398;2022-10-16T15:08:07;21.40;99.90
8593;DHT22;4334;49.982;8.398;2022-10-16T15:10:38;21.00;99.90
8593;DHT22;4334;49.982;8.398;2022-10-16T15:13:06;20.80;99.90
8593;DHT22;4334;49.982;8.398;2022-10-16T15:15:35;24.50;99.90
8593;DHT22;4334;49.982;8.398;2022-10-16T15:18:04;20.60;99.90
8593;DHT22;4334;49.982;8.398;2022-10-16T15:20:33;20.60;99.90
8593;DHT22;4334;49.982;8.398;2022-10-16T15:23:01;20.50;99.90
8593;DHT22;4334;49.982;8.398;2022-10-16T15:25:32;20.50;99.90
8593;DHT22;4334;49.982;8.398;2022-10-16T15:27:59;20.50;99.90
8593;DHT22;4334;49.982;8.398;2022-10-16T15:30:26;20.50;99.90
8593;DHT22;4334;49.982;8.398;2022-10-16T15:32:54;20.40;99.90
8593;DHT22;4334;49.982;8.398;2022-10-16T15:35:22;20.30;99.90
8593;DHT22;4334;49.982;8.398;2022-10-16T15:37:49;20.30;99.90
8593;DHT22;4334;49.982;8.398;2022-10-16T15:40:17;23.40;99.90
8593;DHT22;4334;49.982;8.398;2022-10-16T15:42:44;20.10;99.90
8593;DHT22;4334;49.982;8.398;2022-10-16T15:45:12;20.20;99.90
8593;DHT22;4334;49.982;8.398;2022-10-16T15:47:40;20.10;99.90
8593;DHT22;4334;49.982;8.398;2022-10-16T15:50:09;20.00;99.90
8593;DHT22;4334;49.982;8.398;2022-10-16T15:52:38;20.00;99.90
8593;DHT22;4334;49.982;8.398;2022-10-16T15:55:06;19.90;99.90
8593;DHT22;4334;49.982;8.398;2022-10-16T15:57:34;19.90;99.90
8593;DHT22;4334;49.982;8.398;2022-10-16T16:00:05;19.90;99.90
8593;DHT22;4334;49.982;8.398;2022-10-16T16:02:33;19.90;99.90
8593;DHT22;4334;49.982;8.398;2022-10-16T16:04:59;21.00;99.90
8593;DHT22;4334;49.982;8.398;2022-10-16T16:07:27;19.80;99.90
8593;DHT22;4334;49.982;8.398;2022-10-16T16:09:55;19.80;99.90
8593;DHT22;4334;49.982;8.398;2022-10-16T16:12:22;19.70;99.90
8593;DHT22;4334;49.982;8.398;2022-10-16T16:14:49;19.60;99.90
8593;DHT22;4334;49.982;8.398;2022-10-16T16:17:16;19.50;99.90
8593;DHT22;4334;49.982;8.398;2022-10-16T16:19:43;19.50;99.90
8593;DHT22;4334;49.982;8.398;2022-10-16T16:22:11;20.80;99.90
8593;DHT22;4334;49.982;8.398;2022-10-16T16:24:38;19.40;99.90
8593;DHT22;4334;49.982;8.398;2022-10-16T16:27:06;19.30;99.90